Atmore, Alabama
Current Conditions -  °F | °C
As of 11:56 AM on Saturday 20 Dec 2014 (Local Time) from KNSE Reporting Station
Light Rain Light Rain  
Wind Chill: 52°   Ceiling: 6000
Heat Index: 52°   Visibility: 7mi
Dew Point: 49°   Wind: 6mph
Humidity: 89%   Direction: 30°NNE
Pressure: 30.12"   Gusts: NA
Location:  31.03°N, 87.49°W
Report Text: KNSE 201756Z AUTO 03005KT 7SM -RA FEW009 BKN060 OVC085 11/09 A3012 RMK AO2 RAB04E14B35 SLP187 P0000 6//// T01110094 10111 20083 58013 $
Loading
Personal Weather Stations






























Interactive Weather Map New forecast layout! Learn more

10-Day Weather Forecast

Advertisements
Track Severe Weather on mobile